createdAt,value
2022-09-15T00:01:17.918Z,7.90
2022-09-15T00:03:47.907Z,7.00
2022-09-15T00:06:16.588Z,8.10
2022-09-15T00:08:44.722Z,8.00
2022-09-15T00:11:23.073Z,7.20
2022-09-15T00:13:52.708Z,7.40
2022-09-15T00:16:25.380Z,8.70
2022-09-15T00:18:53.736Z,7.80
2022-09-15T00:21:26.594Z,8.50
2022-09-15T00:23:55.193Z,8.90
2022-09-15T00:26:27.154Z,8.30
2022-09-15T00:28:57.628Z,10.00
2022-09-15T00:31:28.325Z,9.40
2022-09-15T00:33:58.812Z,10.70
2022-09-15T00:36:26.970Z,11.30
2022-09-15T00:38:55.974Z,10.90
2022-09-15T00:41:24.925Z,13.90
2022-09-15T00:44:18.363Z,13.30
2022-09-15T00:47:17.671Z,11.70
2022-09-15T00:49:50.800Z,12.90
2022-09-15T00:52:27.832Z,13.20
2022-09-15T00:55:15.973Z,12.00
2022-09-15T00:57:52.883Z,12.20
2022-09-15T01:00:24.716Z,10.70
2022-09-15T01:02:53.037Z,12.30
2022-09-15T01:05:26.451Z,10.50
2022-09-15T01:07:59.612Z,12.80
2022-09-15T01:10:38.992Z,12.50
2022-09-15T01:13:13.241Z,10.30
2022-09-15T01:16:19.934Z,10.80
2022-09-15T01:19:13.171Z,11.50
2022-09-15T01:22:11.711Z,15.80
2022-09-15T01:25:07.105Z,14.70
2022-09-15T01:27:42.788Z,11.90
2022-09-15T01:30:24.863Z,11.80
2022-09-15T01:33:05.711Z,12.70
2022-09-15T01:35:42.415Z,12.50
2022-09-15T01:38:39.876Z,13.70
2022-09-15T01:41:43.055Z,14.00
2022-09-15T01:44:19.151Z,14.80
2022-09-15T01:46:52.321Z,14.30
2022-09-15T01:49:35.569Z,14.00
2022-09-15T01:52:03.341Z,14.30
2022-09-15T01:54:39.056Z,13.10
2022-09-15T01:57:06.687Z,14.40
2022-09-15T01:59:34.681Z,13.80
2022-09-15T02:02:14.591Z,15.20
2022-09-15T02:04:56.524Z,14.30
2022-09-15T02:07:58.493Z,13.60
2022-09-15T02:10:58.961Z,14.20
2022-09-15T02:14:11.475Z,12.60
2022-09-15T02:16:47.680Z,14.60
2022-09-15T02:19:41.672Z,13.90
2022-09-15T02:22:28.221Z,14.00
2022-09-15T02:25:06.231Z,12.00
2022-09-15T02:27:44.599Z,14.10
2022-09-15T02:30:17.766Z,12.40
2022-09-15T02:33:06.794Z,10.90
2022-09-15T02:35:36.725Z,11.10
2022-09-15T02:38:09.117Z,9.70
2022-09-15T02:40:43.015Z,9.00
2022-09-15T02:43:15.256Z,10.10
2022-09-15T02:45:43.575Z,8.80
2022-09-15T02:48:11.789Z,12.40
2022-09-15T02:50:39.484Z,9.60
2022-09-15T02:53:08.125Z,8.30
2022-09-15T02:55:35.697Z,7.70
2022-09-15T02:58:03.745Z,8.40
2022-09-15T03:00:31.697Z,7.00
2022-09-15T03:02:59.298Z,7.50
2022-09-15T03:05:30.439Z,8.80
2022-09-15T03:07:58.046Z,7.40
2022-09-15T03:10:26.615Z,9.30
2022-09-15T03:12:55.167Z,7.80
2022-09-15T03:15:25.998Z,9.50
2022-09-15T03:17:53.938Z,9.10
2022-09-15T03:20:30.347Z,8.50
2022-09-15T03:22:57.979Z,8.20
2022-09-15T03:25:27.017Z,7.50
2022-09-15T03:27:55.047Z,8.30
2022-09-15T03:30:22.780Z,7.20
2022-09-15T03:32:50.652Z,8.10
2022-09-15T03:35:18.362Z,8.40
2022-09-15T03:37:45.922Z,7.60
2022-09-15T03:40:14.409Z,8.20
2022-09-15T03:42:42.025Z,6.70
2022-09-15T03:45:10.067Z,5.10
2022-09-15T03:47:37.594Z,6.50
2022-09-15T03:50:06.926Z,4.40
2022-09-15T03:52:34.529Z,4.70
2022-09-15T03:55:02.093Z,4.30
2022-09-15T03:57:29.663Z,4.00
2022-09-15T03:59:57.239Z,3.30
2022-09-15T04:02:24.912Z,3.70
2022-09-15T04:04:52.439Z,2.40
2022-09-15T04:07:20.023Z,2.80
2022-09-15T04:09:47.689Z,3.00
2022-09-15T04:12:15.333Z,3.40
2022-09-15T04:14:43.184Z,2.60
2022-09-15T04:17:11.600Z,4.50
2022-09-15T04:19:39.242Z,3.30
2022-09-15T04:22:07.000Z,2.90
2022-09-15T04:24:34.560Z,3.40
2022-09-15T04:27:02.116Z,3.80
2022-09-15T04:29:30.038Z,4.60
2022-09-15T04:31:57.861Z,2.40
2022-09-15T04:34:25.505Z,5.60
2022-09-15T04:36:53.164Z,2.90
2022-09-15T04:39:20.828Z,4.10
2022-09-15T04:41:48.394Z,4.20
2022-09-15T04:44:15.983Z,5.30
2022-09-15T04:46:43.701Z,5.70
2022-09-15T04:49:11.425Z,4.30
2022-09-15T04:51:39.002Z,4.90
2022-09-15T04:54:06.562Z,4.70
2022-09-15T04:56:34.162Z,3.50
2022-09-15T04:59:04.229Z,3.40
2022-09-15T05:01:35.294Z,3.20
2022-09-15T05:04:04.102Z,4.00
2022-09-15T05:06:34.734Z,4.50
2022-09-15T05:09:09.801Z,5.30
2022-09-15T05:11:38.633Z,4.10
2022-09-15T05:14:08.159Z,3.60
2022-09-15T05:16:36.028Z,5.80
2022-09-15T05:19:04.791Z,4.10
2022-09-15T05:21:32.891Z,5.90
2022-09-15T05:24:00.768Z,5.30
2022-09-15T05:26:29.933Z,4.90
2022-09-15T05:28:58.207Z,5.70
2022-09-15T05:31:32.189Z,5.80
2022-09-15T05:34:03.697Z,4.70
2022-09-15T05:36:32.841Z,4.70
2022-09-15T05:39:01.867Z,3.90
2022-09-15T05:41:30.084Z,4.10
2022-09-15T05:43:59.121Z,3.40
2022-09-15T05:46:29.079Z,3.50
2022-09-15T05:48:58.517Z,4.90
2022-09-15T05:51:26.789Z,3.70
2022-09-15T05:53:54.346Z,2.70
2022-09-15T05:56:22.046Z,3.70
2022-09-15T05:58:49.947Z,2.20
2022-09-15T06:01:25.244Z,3.80
2022-09-15T06:03:55.214Z,2.70
2022-09-15T06:06:25.890Z,4.80
2022-09-15T06:08:58.971Z,2.60
2022-09-15T06:11:30.895Z,7.10
2022-09-15T06:14:03.796Z,3.00
2022-09-15T06:16:35.590Z,5.30
2022-09-15T06:19:03.853Z,2.60
2022-09-15T06:21:33.421Z,3.60
2022-09-15T06:24:05.979Z,4.30
2022-09-15T06:26:34.371Z,4.00
2022-09-15T06:29:05.328Z,3.20
2022-09-15T06:31:35.706Z,4.10
2022-09-15T06:34:04.091Z,3.70
2022-09-15T06:36:32.786Z,3.60
2022-09-15T06:39:00.503Z,2.20
2022-09-15T06:41:35.318Z,3.00
2022-09-15T06:44:10.494Z,3.70
2022-09-15T06:46:38.692Z,3.10
2022-09-15T06:49:08.807Z,2.70
2022-09-15T06:51:36.747Z,3.00
2022-09-15T06:54:06.018Z,3.30
2022-09-15T06:56:37.872Z,3.60
2022-09-15T06:59:06.721Z,2.50
2022-09-15T07:01:39.037Z,1.70
2022-09-15T07:04:09.928Z,2.70
2022-09-15T07:06:39.426Z,2.30
2022-09-15T07:09:07.942Z,2.10
2022-09-15T07:11:35.707Z,2.50
2022-09-15T07:14:03.848Z,2.10
2022-09-15T07:16:31.566Z,2.00
2022-09-15T07:19:01.831Z,1.80
2022-09-15T07:21:29.427Z,3.00
2022-09-15T07:23:58.235Z,2.50
2022-09-15T07:26:29.098Z,2.00
2022-09-15T07:29:01.165Z,2.00
2022-09-15T07:31:32.899Z,2.70
2022-09-15T07:34:01.395Z,4.70
2022-09-15T07:36:30.983Z,3.20
2022-09-15T07:38:58.755Z,5.00
2022-09-15T07:41:30.020Z,5.50
2022-09-15T07:43:59.917Z,6.30
2022-09-15T07:46:32.287Z,5.90
2022-09-15T07:49:02.731Z,5.30
2022-09-15T07:51:30.906Z,6.30
2022-09-15T07:53:58.748Z,8.50
2022-09-15T07:56:26.748Z,8.90
2022-09-15T07:58:54.289Z,6.20
2022-09-15T08:01:22.707Z,5.40
2022-09-15T08:03:52.323Z,5.90
2022-09-15T08:06:25.149Z,5.20
2022-09-15T08:08:59.224Z,6.00
2022-09-15T08:11:29.136Z,5.20
2022-09-15T08:14:02.427Z,6.00
2022-09-15T08:16:30.238Z,6.80
2022-09-15T08:18:58.142Z,5.40
2022-09-15T08:21:27.684Z,5.90
2022-09-15T08:23:59.403Z,6.60
2022-09-15T08:26:29.322Z,6.10
2022-09-15T08:28:58.059Z,7.20
2022-09-15T08:31:25.866Z,5.50
2022-09-15T08:33:55.624Z,6.90
2022-09-15T08:36:27.456Z,8.90
2022-09-15T08:38:55.635Z,9.00
2022-09-15T08:41:33.517Z,9.40
2022-09-15T08:44:21.206Z,10.10
2022-09-15T08:47:08.632Z,11.80
2022-09-15T08:50:10.375Z,13.00
2022-09-15T08:52:48.232Z,11.60
2022-09-15T08:55:48.291Z,11.80
2022-09-15T08:58:22.796Z,10.80
2022-09-15T09:01:03.966Z,10.30
2022-09-15T09:03:53.803Z,8.90
2022-09-15T09:06:47.400Z,9.60
2022-09-15T09:09:33.105Z,10.80
2022-09-15T09:12:44.943Z,11.00
2022-09-15T09:16:12.427Z,11.80
2022-09-15T09:19:02.050Z,12.80
2022-09-15T09:21:35.239Z,10.20
2022-09-15T09:24:36.911Z,15.80
2022-09-15T09:27:12.954Z,10.30
2022-09-15T09:29:49.872Z,10.60
2022-09-15T09:32:27.623Z,12.60
2022-09-15T09:35:04.648Z,12.30
2022-09-15T09:37:33.899Z,13.20
2022-09-15T09:40:01.904Z,9.30
2022-09-15T09:42:34.833Z,10.20
2022-09-15T09:45:05.782Z,12.10
2022-09-15T09:47:36.320Z,9.60
2022-09-15T09:50:25.268Z,10.50
2022-09-15T09:52:53.048Z,12.20
2022-09-15T09:55:23.757Z,9.40
2022-09-15T09:57:51.428Z,9.10
2022-09-15T10:00:34.397Z,8.70
2022-09-15T10:03:16.520Z,7.50
2022-09-15T10:05:46.419Z,6.80
2022-09-15T10:08:20.544Z,8.50
2022-09-15T10:11:02.845Z,10.40
2022-09-15T10:13:30.499Z,11.00
2022-09-15T10:16:02.456Z,8.20
2022-09-15T10:18:38.169Z,10.50
2022-09-15T10:21:09.700Z,10.40
2022-09-15T10:23:37.460Z,11.70
2022-09-15T10:26:34.444Z,10.40
2022-09-15T10:29:15.189Z,11.30
2022-09-15T10:31:45.660Z,11.50
2022-09-15T10:34:31.997Z,9.30
2022-09-15T10:37:40.523Z,11.00
2022-09-15T10:40:29.105Z,5.90
2022-09-15T10:43:14.430Z,8.70
2022-09-15T10:45:49.701Z,8.70
2022-09-15T10:48:36.428Z,10.80
2022-09-15T10:51:46.503Z,8.80
2022-09-15T10:54:41.829Z,6.40
2022-09-15T10:58:18.310Z,7.20
2022-09-15T11:01:22.938Z,9.30
2022-09-15T11:04:32.447Z,10.10
2022-09-15T11:08:10.777Z,8.40
2022-09-15T11:11:36.028Z,8.00
2022-09-15T11:14:54.331Z,10.70
2022-09-15T11:18:00.005Z,5.80
2022-09-15T11:21:01.855Z,9.20
2022-09-15T11:23:46.785Z,7.30
2022-09-15T11:26:28.568Z,8.90
2022-09-15T11:29:05.766Z,6.10
2022-09-15T11:31:46.489Z,9.00
2022-09-15T11:34:25.884Z,7.60
2022-09-15T11:37:10.704Z,8.60
2022-09-15T11:40:02.318Z,7.00
2022-09-15T11:43:05.697Z,8.30
2022-09-15T11:45:43.482Z,8.50
2022-09-15T11:48:26.654Z,9.80
2022-09-15T11:51:00.025Z,6.00
2022-09-15T11:53:43.879Z,5.30
2022-09-15T11:56:31.996Z,6.70
2022-09-15T11:59:32.665Z,9.00
2022-09-15T12:02:19.569Z,7.50
2022-09-15T12:05:15.041Z,7.40
2022-09-15T12:07:59.572Z,10.30
2022-09-15T12:10:35.252Z,8.20
2022-09-15T12:13:05.630Z,8.70
2022-09-15T12:15:33.675Z,6.40
2022-09-15T12:18:34.401Z,10.20
2022-09-15T12:21:34.701Z,7.30
2022-09-15T12:24:23.444Z,6.90
2022-09-15T12:26:52.055Z,6.50
2022-09-15T12:29:22.366Z,7.90
2022-09-15T12:32:27.709Z,7.30
2022-09-15T12:35:15.336Z,9.00
2022-09-15T12:37:58.027Z,8.80
2022-09-15T12:40:40.462Z,7.50
2022-09-15T12:43:11.521Z,8.20
2022-09-15T12:45:43.611Z,6.80
2022-09-15T12:48:24.637Z,9.70
2022-09-15T12:51:01.670Z,8.30
2022-09-15T12:56:24.628Z,7.40
2022-09-15T12:58:54.107Z,7.20
2022-09-15T13:01:24.606Z,7.50
2022-09-15T13:03:55.295Z,9.00
2022-09-15T13:06:29.574Z,8.00
2022-09-15T13:09:05.911Z,9.90
2022-09-15T13:11:37.615Z,7.90
2022-09-15T13:14:08.699Z,8.10
2022-09-15T13:16:46.499Z,9.00
2022-09-15T13:19:41.729Z,9.00
2022-09-15T13:22:12.072Z,8.60
2022-09-15T13:25:13.693Z,11.40
2022-09-15T13:28:02.622Z,7.80
2022-09-15T13:30:59.674Z,9.40
2022-09-15T13:39:55.727Z,11.20
2022-09-15T13:43:00.619Z,11.00
2022-09-15T13:45:55.394Z,9.10
2022-09-15T13:48:34.893Z,8.30
2022-09-15T13:51:18.198Z,11.40
2022-09-15T13:53:54.316Z,10.50
2022-09-15T13:56:35.527Z,10.50
2022-09-15T13:59:12.860Z,9.70
2022-09-15T14:01:44.548Z,10.70
2022-09-15T14:04:24.547Z,10.30
2022-09-15T14:07:00.004Z,8.90
2022-09-15T14:09:44.876Z,9.00
2022-09-15T14:12:16.495Z,11.30
2022-09-15T14:14:55.559Z,11.20
2022-09-15T14:17:28.975Z,8.50
2022-09-15T14:20:00.765Z,7.40
2022-09-15T14:22:33.053Z,12.00
2022-09-15T14:25:08.240Z,10.00
2022-09-15T14:27:43.232Z,8.60
2022-09-15T14:30:26.379Z,8.50
2022-09-15T14:33:00.682Z,11.70
2022-09-15T14:35:38.080Z,13.20
2022-09-15T14:38:05.795Z,11.00
2022-09-15T14:40:39.661Z,12.30
2022-09-15T14:43:35.855Z,11.90
2022-09-15T14:46:15.244Z,10.80
2022-09-15T14:48:42.909Z,18.30
2022-09-15T14:51:28.665Z,12.50
2022-09-15T14:54:05.533Z,11.20
2022-09-15T14:56:43.305Z,12.40
2022-09-15T14:59:21.382Z,13.60
2022-09-15T15:02:02.964Z,15.20
2022-09-15T15:04:44.822Z,12.80
2022-09-15T15:07:30.836Z,10.50
2022-09-15T15:10:04.256Z,12.80
2022-09-15T15:12:40.976Z,12.40
2022-09-15T15:15:13.757Z,11.80
2022-09-15T15:17:54.496Z,15.60
2022-09-15T15:20:32.872Z,15.50
2022-09-15T15:23:16.013Z,13.60
2022-09-15T15:25:44.588Z,15.20
2022-09-15T15:28:33.054Z,13.30
2022-09-15T15:31:21.754Z,11.90
2022-09-15T15:34:05.318Z,12.10
2022-09-15T15:36:36.573Z,12.50
2022-09-15T15:39:07.968Z,10.50
2022-09-15T15:41:42.167Z,10.00
2022-09-15T15:44:15.983Z,14.80
2022-09-15T15:46:56.187Z,13.00
2022-09-15T15:49:32.457Z,8.60
2022-09-15T15:52:01.851Z,10.60
2022-09-15T15:54:29.768Z,10.70
2022-09-15T15:57:21.798Z,9.90
2022-09-15T15:59:57.495Z,14.00
2022-09-15T16:02:28.402Z,12.10
2022-09-15T16:04:56.023Z,11.70
2022-09-15T16:07:29.903Z,10.10
2022-09-15T16:10:01.277Z,13.20
2022-09-15T16:12:30.813Z,11.50
2022-09-15T16:15:00.935Z,14.90
2022-09-15T16:17:28.524Z,12.50
2022-09-15T16:19:56.473Z,13.80
2022-09-15T16:22:24.164Z,14.90
2022-09-15T16:24:51.725Z,11.60
2022-09-15T16:27:19.257Z,12.70
2022-09-15T16:29:46.905Z,10.50
2022-09-15T16:32:21.270Z,10.20
2022-09-15T16:34:51.300Z,12.30
2022-09-15T16:37:19.074Z,17.60
2022-09-15T16:39:46.660Z,10.40
2022-09-15T16:42:14.809Z,8.20
2022-09-15T16:44:43.088Z,9.20
2022-09-15T16:47:10.962Z,13.10
2022-09-15T16:49:39.428Z,13.60
2022-09-15T16:52:12.848Z,13.50
2022-09-15T16:54:40.548Z,14.20
2022-09-15T16:57:08.152Z,12.20
2022-09-15T16:59:36.230Z,12.90
2022-09-15T17:02:13.564Z,13.20
2022-09-15T17:04:41.214Z,11.40
2022-09-15T17:07:08.801Z,17.30
2022-09-15T17:09:36.908Z,11.80
2022-09-15T17:12:04.959Z,10.90
2022-09-15T17:14:33.530Z,14.80
2022-09-15T17:17:01.183Z,13.50
2022-09-15T17:19:29.151Z,16.00
2022-09-15T17:21:56.753Z,16.70
2022-09-15T17:24:24.378Z,13.00
2022-09-15T17:26:52.685Z,15.50
2022-09-15T17:29:20.639Z,15.20
2022-09-15T17:31:48.736Z,17.50
2022-09-15T17:34:16.445Z,15.90
2022-09-15T17:36:43.992Z,19.00
2022-09-15T17:39:11.910Z,14.80
2022-09-15T17:41:39.465Z,13.80
2022-09-15T17:44:13.159Z,18.40
2022-09-15T17:46:41.140Z,14.10
2022-09-15T17:49:08.777Z,14.10
2022-09-15T17:51:36.430Z,14.10
2022-09-15T17:54:04.285Z,21.20
2022-09-15T17:56:32.446Z,14.70
2022-09-15T17:59:00.896Z,13.40
2022-09-15T18:01:28.520Z,15.10
2022-09-15T18:03:56.302Z,15.10
2022-09-15T18:06:23.965Z,14.70
2022-09-15T18:08:51.759Z,14.20
2022-09-15T18:11:19.437Z,13.50
2022-09-15T18:13:47.057Z,14.20
2022-09-15T18:16:14.886Z,15.20
2022-09-15T18:18:42.956Z,16.60
2022-09-15T18:21:25.115Z,12.70
2022-09-15T18:23:53.800Z,16.40
2022-09-15T18:26:26.275Z,14.80
2022-09-15T18:28:55.065Z,16.40
2022-09-15T18:31:22.951Z,14.80
2022-09-15T18:33:50.633Z,14.90
2022-09-15T18:36:18.366Z,12.80
2022-09-15T18:38:46.070Z,16.10
2022-09-15T18:41:13.711Z,15.40
2022-09-15T18:43:41.388Z,14.90
2022-09-15T18:46:09.091Z,13.90
2022-09-15T18:48:37.083Z,13.80
2022-09-15T18:51:09.263Z,15.80
2022-09-15T18:53:37.984Z,12.80
2022-09-15T18:56:14.777Z,15.80
2022-09-15T18:58:42.966Z,16.80
2022-09-15T19:01:10.736Z,13.80
2022-09-15T19:03:43.984Z,15.50
2022-09-15T19:06:13.134Z,16.20
2022-09-15T19:08:40.772Z,14.30
2022-09-15T19:11:09.294Z,13.20
2022-09-15T19:13:37.019Z,14.70
2022-09-15T19:16:07.135Z,17.10
2022-09-15T19:18:36.364Z,17.00
2022-09-15T19:21:10.621Z,17.20
2022-09-15T19:23:39.182Z,15.90
2022-09-15T19:26:13.629Z,16.60
2022-09-15T19:28:45.999Z,16.30
2022-09-15T19:31:13.945Z,11.10
2022-09-15T19:33:41.770Z,15.70
2022-09-15T19:36:28.529Z,15.60
2022-09-15T19:38:59.304Z,16.20
2022-09-15T19:41:27.068Z,12.70
2022-09-15T19:43:54.940Z,14.40
2022-09-15T19:46:25.202Z,13.50
2022-09-15T19:48:53.652Z,14.20
2022-09-15T19:51:21.985Z,12.60
2022-09-15T19:53:52.817Z,14.60
2022-09-15T19:56:23.429Z,14.40
2022-09-15T19:58:51.067Z,13.90
2022-09-15T20:01:19.033Z,15.30
2022-09-15T20:03:46.747Z,14.90
2022-09-15T20:06:14.483Z,16.50
2022-09-15T20:08:44.586Z,14.20
2022-09-15T20:11:12.480Z,12.20
2022-09-15T20:13:43.922Z,16.60
2022-09-15T20:16:18.237Z,14.90
2022-09-15T20:18:48.732Z,16.00
2022-09-15T20:21:48.629Z,14.10
2022-09-15T20:24:17.359Z,16.60
2022-09-15T20:26:44.943Z,15.70
2022-09-15T20:29:13.568Z,13.40
2022-09-15T20:31:42.552Z,14.50
2022-09-15T20:34:10.103Z,15.50
2022-09-15T20:36:39.275Z,13.60
2022-09-15T20:39:12.842Z,14.00
2022-09-15T20:41:45.105Z,14.00
2022-09-15T20:44:14.032Z,13.50
2022-09-15T20:46:43.197Z,14.20
2022-09-15T20:49:12.064Z,12.40
2022-09-15T20:51:39.845Z,13.20
2022-09-15T20:54:07.567Z,10.50
2022-09-15T20:56:36.220Z,11.60
2022-09-15T20:59:06.152Z,13.10
2022-09-15T21:01:37.904Z,14.60
2022-09-15T21:04:09.040Z,10.90
2022-09-15T21:06:37.041Z,13.80
2022-09-15T21:09:06.101Z,15.40
2022-09-15T21:11:34.265Z,11.70
2022-09-15T21:14:02.104Z,13.00
2022-09-15T21:16:30.421Z,9.70
2022-09-15T21:18:59.242Z,11.30
2022-09-15T21:21:33.530Z,11.00
2022-09-15T21:24:07.810Z,10.40
2022-09-15T21:27:03.014Z,8.90
2022-09-15T21:29:31.351Z,10.10
2022-09-15T21:31:59.022Z,10.00
2022-09-15T21:34:27.065Z,8.80
2022-09-15T21:36:54.721Z,9.40
2022-09-15T21:39:22.301Z,11.70
2022-09-15T21:41:50.097Z,8.60
2022-09-15T21:44:17.732Z,8.50
2022-09-15T21:46:47.080Z,8.50
2022-09-15T21:49:14.897Z,10.50
2022-09-15T21:51:42.956Z,8.60
2022-09-15T21:54:10.559Z,10.30
2022-09-15T21:56:38.200Z,8.40
2022-09-15T21:59:06.034Z,7.30
2022-09-15T22:01:33.789Z,8.80
2022-09-15T22:04:06.268Z,7.90
2022-09-15T22:06:40.869Z,9.30
2022-09-15T22:09:16.545Z,10.30
2022-09-15T22:11:44.519Z,7.00
2022-09-15T22:14:13.155Z,11.30
2022-09-15T22:16:42.841Z,10.30
2022-09-15T22:19:12.098Z,11.40
2022-09-15T22:21:42.125Z,7.90
2022-09-15T22:24:13.345Z,8.40
2022-09-15T22:26:43.443Z,8.20
2022-09-15T22:29:12.016Z,10.00
2022-09-15T22:31:40.818Z,8.90
2022-09-15T22:34:08.518Z,11.60
2022-09-15T22:36:36.125Z,9.90
2022-09-15T22:39:05.227Z,8.90
2022-09-15T22:41:37.873Z,10.00
2022-09-15T22:44:17.862Z,9.10
2022-09-15T22:46:46.174Z,10.70
2022-09-15T22:49:13.895Z,7.90
2022-09-15T22:51:41.845Z,9.40
2022-09-15T22:54:09.456Z,10.40
2022-09-15T22:56:37.082Z,13.30
2022-09-15T22:59:04.610Z,8.70
2022-09-15T23:01:32.244Z,8.70
2022-09-15T23:04:02.311Z,10.40
2022-09-15T23:06:33.167Z,10.00
2022-09-15T23:09:06.446Z,9.60
2022-09-15T23:11:37.410Z,10.60
2022-09-15T23:14:17.649Z,10.00
2022-09-15T23:16:45.305Z,9.00
2022-09-15T23:19:14.477Z,9.50
2022-09-15T23:21:42.095Z,10.50
2022-09-15T23:24:12.414Z,12.10
2022-09-15T23:26:40.364Z,11.10
2022-09-15T23:29:08.168Z,8.40
2022-09-15T23:31:35.934Z,10.00
2022-09-15T23:34:03.470Z,8.40
2022-09-15T23:36:31.005Z,7.90
2022-09-15T23:38:58.617Z,10.10
2022-09-15T23:41:26.659Z,7.20
2022-09-15T23:43:55.621Z,9.90
2022-09-15T23:46:23.981Z,8.60
2022-09-15T23:48:51.570Z,8.50
2022-09-15T23:51:19.177Z,8.50
2022-09-15T23:53:47.011Z,7.70
2022-09-15T23:56:14.878Z,9.90
2022-09-15T23:58:42.557Z,7.20
